Time;durP1;ratioP1;P1;durP2;ratioP2;P2;SDS_P1;SDS_P2;PMS_P1;PMS_P2;Temp;Humidity;BMP_temperature;BMP_pressure;BME280_temperature;BME280_humidity;BME280_pressure;Samples;Min_cycle;Max_cycle;Signal;HPM_P1;HPM_P2
2023/10/05 00:01:45;;;;;;;9.70;4.10;;;;;;;18.52;48.27;99690.03;5096170;28;20193;-86
2023/10/05 00:03:38;;;;;;;12.03;3.60;;;;;;;18.51;48.15;99682.16;5103051;28;20224;-86
2023/10/05 00:06:14;;;;;;;14.13;4.80;;;;;;;18.49;48.32;99678.78;5096455;28;20182;-86
2023/10/05 00:08:47;;;;;;;8.03;4.00;;;;;;;18.47;48.53;99678.91;5114498;28;20187;-86
2023/10/05 00:13:59;;;;;;;10.30;3.70;;;;;;;18.34;48.75;99684.25;5114188;28;20182;-85
2023/10/05 00:16:36;;;;;;;8.17;3.70;;;;;;;18.29;49.02;99688.25;5114092;28;20265;-85
2023/10/05 00:19:10;;;;;;;9.43;3.53;;;;;;;18.30;48.35;99692.56;5114075;28;20240;-85
2023/10/05 00:21:40;;;;;;;18.80;4.10;;;;;;;18.26;48.37;99688.47;5114378;28;20519;-85
2023/10/05 00:24:07;;;;;;;9.87;3.83;;;;;;;18.24;48.74;99688.56;5095643;28;20209;-85
2023/10/05 00:26:36;;;;;;;9.30;3.60;;;;;;;18.22;48.61;99693.16;5108471;28;20955;-85
2023/10/05 00:29:21;;;;;;;8.83;4.00;;;;;;;18.21;48.34;99696.75;5093535;28;20181;-85
2023/10/05 00:31:50;;;;;;;10.77;4.63;;;;;;;18.11;48.74;99686.94;5093462;28;20191;-85
2023/10/05 00:34:24;;;;;;;8.03;3.83;;;;;;;18.13;48.28;99688.50;5113876;28;20184;-85
2023/10/05 00:36:51;;;;;;;8.67;3.63;;;;;;;18.13;48.04;99691.16;5114426;28;20159;-85
2023/10/05 00:39:19;;;;;;;10.57;4.17;;;;;;;18.02;48.62;99695.59;5113654;28;20171;-85
2023/10/05 00:44:36;;;;;;;11.00;3.70;;;;;;;17.96;48.60;99698.69;5113936;28;20244;-85
2023/10/05 00:47:06;;;;;;;10.17;4.00;;;;;;;18.02;48.49;99696.44;5113696;28;20178;-85
2023/10/05 00:49:59;;;;;;;11.97;3.93;;;;;;;18.03;48.01;99694.66;5095647;28;20288;-85
2023/10/05 00:52:25;;;;;;;8.77;3.47;;;;;;;17.98;48.08;99697.63;5097175;28;20191;-85
2023/10/05 00:54:56;;;;;;;8.97;4.13;;;;;;;17.95;48.26;99699.69;5075309;28;20590;-85
2023/10/05 00:57:24;;;;;;;13.53;4.17;;;;;;;17.99;47.95;99694.03;5090392;28;20179;-85
2023/10/05 01:00:26;;;;;;;9.90;3.77;;;;;;;17.97;47.95;99690.66;5095684;28;20251;-85
2023/10/05 01:03:33;;;;;;;11.87;4.00;;;;;;;17.84;47.88;99691.66;5113348;28;20590;-85
2023/10/05 01:05:47;;;;;;;11.47;3.97;;;;;;;17.77;47.69;99689.44;5102444;28;20198;-85
2023/10/05 01:08:15;;;;;;;10.23;4.10;;;;;;;17.73;48.15;99688.00;5113085;28;20726;-85
2023/10/05 01:10:47;;;;;;;9.13;3.73;;;;;;;17.65;48.30;99690.34;5095244;28;20385;-85
2023/10/05 01:13:31;;;;;;;9.87;4.33;;;;;;;17.49;48.83;99688.88;5116552;28;20160;-85
2023/10/05 01:15:58;;;;;;;11.10;4.73;;;;;;;17.47;48.91;99683.69;5112169;28;20180;-85
2023/10/05 01:18:25;;;;;;;8.67;3.57;;;;;;;17.39;49.08;99687.84;5097150;28;20180;-85
2023/10/05 01:20:54;;;;;;;9.93;4.03;;;;;;;17.37;49.28;99682.66;5113244;28;20185;-85
2023/10/05 01:23:30;;;;;;;12.87;4.10;;;;;;;17.28;50.23;99683.31;5117532;28;20176;-85
2023/10/05 01:25:58;;;;;;;10.97;4.00;;;;;;;17.27;50.51;99676.31;5117740;28;20166;-85
2023/10/05 01:28:25;;;;;;;10.37;4.33;;;;;;;17.30;50.83;99681.38;5117221;28;20703;-85
2023/10/05 01:30:50;;;;;;;10.27;3.53;;;;;;;17.21;51.25;99679.41;5117360;28;20170;-85
2023/10/05 01:33:17;;;;;;;8.60;3.50;;;;;;;17.19;51.45;99681.31;5099344;28;20598;-85
2023/10/05 01:35:42;;;;;;;12.87;4.23;;;;;;;17.26;51.10;99676.44;5099078;28;20206;-85
2023/10/05 01:38:11;;;;;;;8.20;3.77;;;;;;;17.23;51.16;99682.78;5099172;28;20669;-85
2023/10/05 01:40:38;;;;;;;14.30;4.23;;;;;;;17.15;51.03;99679.84;5099201;28;20643;-85
2023/10/05 01:43:05;;;;;;;12.20;4.13;;;;;;;17.10;50.99;99679.31;5089229;28;20184;-85
2023/10/05 01:45:33;;;;;;;13.93;4.27;;;;;;;17.13;50.82;99679.97;5078847;28;20177;-85
2023/10/05 01:48:01;;;;;;;8.70;4.33;;;;;;;17.15;50.75;99680.69;5109805;28;20179;-85
2023/10/05 01:50:27;;;;;;;11.73;4.37;;;;;;;17.19;50.07;99676.00;5099321;28;20215;-85
2023/10/05 01:53:02;;;;;;;13.70;4.83;;;;;;;17.21;49.97;99684.72;5098890;28;20195;-85
2023/10/05 01:55:30;;;;;;;10.03;3.60;;;;;;;17.16;50.02;99681.53;5098798;28;20537;-85
2023/10/05 01:57:58;;;;;;;9.93;4.20;;;;;;;17.13;49.95;99679.09;5116845;28;20179;-85
2023/10/05 02:00:25;;;;;;;11.17;4.37;;;;;;;17.07;50.13;99687.47;5117164;28;20167;-86
2023/10/05 02:02:55;;;;;;;9.83;4.20;;;;;;;17.05;50.52;99689.41;5116701;28;20239;-85
2023/10/05 02:05:22;;;;;;;10.67;3.80;;;;;;;16.97;50.71;99681.13;5117035;28;20160;-85
2023/10/05 02:07:50;;;;;;;6.83;3.60;;;;;;;16.95;50.63;99691.84;5098290;28;20183;-85
2023/10/05 02:10:19;;;;;;;12.77;4.70;;;;;;;16.93;50.23;99692.88;5098636;28;20187;-85
2023/10/05 02:12:49;;;;;;;9.03;3.50;;;;;;;16.95;50.20;99691.00;5116377;28;20632;-85
2023/10/05 02:15:16;;;;;;;11.23;3.60;;;;;;;16.96;50.33;99687.38;5116759;28;20175;-85
2023/10/05 02:17:47;;;;;;;10.97;4.37;;;;;;;16.94;50.68;99697.22;5098399;28;20656;-85
2023/10/05 02:20:26;;;;;;;11.23;3.90;;;;;;;16.95;50.22;99694.50;5116746;28;20500;-85
2023/10/05 02:22:53;;;;;;;10.27;3.57;;;;;;;16.90;50.50;99695.78;5116818;28;20661;-85
2023/10/05 02:25:24;;;;;;;10.37;3.23;;;;;;;16.84;50.11;99696.19;5114930;28;20216;-85
2023/10/05 02:27:52;;;;;;;12.87;4.67;;;;;;;16.84;50.20;99697.03;5098071;28;20314;-85
2023/10/05 02:30:26;;;;;;;9.50;4.10;;;;;;;16.83;50.09;99699.78;5098279;28;20187;-85
2023/10/05 02:33:04;;;;;;;9.20;3.40;;;;;;;16.78;49.93;99707.19;5097929;28;20323;-85
2023/10/05 02:35:33;;;;;;;8.00;3.70;;;;;;;16.73;50.41;99717.25;5116006;28;20175;-85
2023/10/05 02:38:05;;;;;;;15.27;4.80;;;;;;;16.69;50.85;99713.13;5116299;28;20254;-85
2023/10/05 02:40:36;;;;;;;12.67;4.17;;;;;;;16.72;51.33;99716.41;5115884;28;20172;-85
2023/10/05 02:43:07;;;;;;;9.57;3.40;;;;;;;16.70;52.23;99713.00;5097960;28;20206;-85
2023/10/05 02:45:37;;;;;;;14.03;4.57;;;;;;;16.70;52.96;99710.38;5116235;28;20665;-85
2023/10/05 02:48:07;;;;;;;12.40;4.30;;;;;;;16.72;53.23;99707.63;5088102;28;20191;-85
2023/10/05 02:50:37;;;;;;;10.67;4.00;;;;;;;16.67;53.66;99715.88;5095548;28;20222;-85
2023/10/05 02:53:06;;;;;;;10.20;3.87;;;;;;;16.68;53.81;99722.00;5104396;28;20172;-85
2023/10/05 02:55:36;;;;;;;9.10;3.23;;;;;;;16.67;53.68;99710.56;5115697;28;20187;-85
2023/10/05 02:58:05;;;;;;;9.70;3.80;;;;;;;16.62;54.12;99717.13;5115947;28;20544;-85
2023/10/05 03:00:35;;;;;;;9.73;4.20;;;;;;;16.62;53.95;99719.78;5115438;28;20173;-85
2023/10/05 03:03:03;;;;;;;11.00;3.50;;;;;;;16.72;53.48;99718.22;5097541;28;20176;-85
2023/10/05 03:05:35;;;;;;;12.00;3.80;;;;;;;16.72;53.07;99712.94;5115393;28;20261;-85
2023/10/05 03:08:00;;;;;;;10.63;4.40;;;;;;;16.74;52.71;99711.00;5115690;28;20195;-85
2023/10/05 03:10:27;;;;;;;14.47;4.40;;;;;;;16.72;52.56;99719.03;5115152;28;20212;-85
2023/10/05 03:12:54;;;;;;;10.87;4.13;;;;;;;16.72;52.34;99712.94;5115100;28;20556;-84
2023/10/05 03:15:23;;;;;;;10.93;3.87;;;;;;;16.75;52.26;99707.41;5115370;28;20626;-85
2023/10/05 03:17:51;;;;;;;7.93;3.67;;;;;;;16.73;51.64;99704.00;5107369;28;20268;-85
2023/10/05 03:20:18;;;;;;;14.73;4.77;;;;;;;16.68;51.24;99700.84;5100152;28;20635;-85
2023/10/05 03:22:47;;;;;;;9.87;3.97;;;;;;;16.57;51.64;99715.66;5115185;28;20163;-85
2023/10/05 03:25:15;;;;;;;10.60;4.13;;;;;;;16.48;52.24;99713.59;5115094;28;20229;-85
2023/10/05 03:27:41;;;;;;;10.67;3.43;;;;;;;16.38;52.38;99720.44;5096930;28;20632;-85
2023/10/05 03:30:13;;;;;;;9.47;4.10;;;;;;;16.37;52.71;99726.72;5097034;28;20282;-85
2023/10/05 03:32:42;;;;;;;13.17;3.90;;;;;;;16.35;53.66;99720.66;5115140;28;20171;-85
2023/10/05 03:35:09;;;;;;;11.40;4.77;;;;;;;16.33;54.37;99722.56;5115157;28;20254;-85
2023/10/05 03:37:39;;;;;;;7.93;3.37;;;;;;;16.30;54.66;99722.75;5112104;28;20211;-85
2023/10/05 03:40:18;;;;;;;10.90;3.67;;;;;;;16.35;54.67;99730.41;5094469;28;20251;-85
2023/10/05 03:42:46;;;;;;;12.57;4.07;;;;;;;16.39;54.08;99721.31;5107125;28;20176;-85
2023/10/05 03:45:11;;;;;;;9.10;4.57;;;;;;;16.33;53.94;99721.69;5114757;28;20170;-85
2023/10/05 03:47:38;;;;;;;11.10;4.47;;;;;;;16.32;53.62;99720.88;5114746;28;20183;-85
2023/10/05 03:50:07;;;;;;;10.77;5.03;;;;;;;16.35;53.36;99725.94;5096640;28;20211;-85
2023/10/05 03:52:34;;;;;;;11.37;4.17;;;;;;;16.37;53.27;99728.50;5114479;28;20212;-85
2023/10/05 03:55:10;;;;;;;14.13;4.37;;;;;;;16.30;53.78;99721.94;5114407;28;20182;-85
2023/10/05 03:57:38;;;;;;;13.80;4.63;;;;;;;16.27;53.57;99722.97;5096427;28;20266;-85
2023/10/05 04:00:23;;;;;;;8.77;3.90;;;;;;;16.29;53.59;99731.66;5096510;28;20583;-85
2023/10/05 04:02:54;;;;;;;13.07;4.60;;;;;;;16.26;53.71;99726.56;5078700;28;20184;-85
2023/10/05 04:05:22;;;;;;;11.73;4.47;;;;;;;16.29;53.28;99729.00;5076116;28;20158;-85
2023/10/05 04:07:51;;;;;;;13.73;4.47;;;;;;;16.23;53.19;99728.56;5100082;28;20257;-85
2023/10/05 04:13:17;;;;;;;11.97;5.27;;;;;;;16.22;53.43;99730.34;5070114;28;20203;-85
2023/10/05 04:15:43;;;;;;;11.03;4.07;;;;;;;16.28;53.19;99724.66;5099878;28;20174;-85
2023/10/05 04:18:16;;;;;;;14.53;4.93;;;;;;;16.23;53.19;99729.41;5113975;28;20176;-85
2023/10/05 04:20:47;;;;;;;10.83;4.07;;;;;;;16.14;52.89;99732.66;5103912;28;20180;-85
2023/10/05 04:23:16;;;;;;;15.07;4.33;;;;;;;16.14;53.21;99732.66;5097864;28;20671;-85
2023/10/05 04:25:44;;;;;;;10.33;4.17;;;;;;;16.15;53.22;99739.66;5096101;28;20175;-85
2023/10/05 04:28:10;;;;;;;13.73;5.00;;;;;;;16.17;53.35;99727.16;5113886;28;20311;-85
2023/10/05 04:30:35;;;;;;;11.50;4.77;;;;;;;16.21;53.34;99733.97;5113871;28;20328;-85
2023/10/05 04:33:03;;;;;;;9.00;3.83;;;;;;;16.23;53.57;99734.69;5113938;28;20172;-85
2023/10/05 04:35:32;;;;;;;11.47;3.60;;;;;;;16.24;53.75;99732.91;5113790;28;20620;-85
2023/10/05 04:38:00;;;;;;;10.33;4.33;;;;;;;16.21;54.34;99735.75;5113859;28;20201;-85
2023/10/05 04:40:27;;;;;;;12.43;4.53;;;;;;;16.19;54.03;99738.50;5114097;28;20179;-85
2023/10/05 04:42:58;;;;;;;10.10;3.63;;;;;;;16.15;53.58;99741.44;5095606;28;20196;-84
2023/10/05 04:45:27;;;;;;;13.93;5.23;;;;;;;16.16;53.31;99751.94;5095676;28;20611;-85
2023/10/05 04:47:58;;;;;;;16.80;5.60;;;;;;;16.16;53.46;99748.44;5094791;28;20183;-84
2023/10/05 04:50:26;;;;;;;10.43;4.30;;;;;;;16.21;53.21;99754.28;5096978;28;20167;-85
2023/10/05 04:52:52;;;;;;;15.00;4.10;;;;;;;16.29;52.79;99747.53;5113222;28;20228;-85
2023/10/05 04:55:22;;;;;;;12.03;3.80;;;;;;;16.38;52.69;99751.34;5095687;28;20593;-85
2023/10/05 04:57:55;;;;;;;11.30;4.87;;;;;;;16.39;52.86;99756.56;5095492;28;20216;-85
2023/10/05 05:03:32;;;;;;;12.50;4.70;;;;;;;16.53;51.74;99761.78;5105606;28;20201;-85
2023/10/05 05:08:32;;;;;;;11.90;4.80;;;;;;;16.53;52.34;99759.13;5104189;28;20195;-85
2023/10/05 05:10:59;;;;;;;14.30;4.47;;;;;;;16.52;52.04;99768.06;5095446;28;20265;-85
2023/10/05 05:13:27;;;;;;;10.67;4.53;;;;;;;16.53;51.72;99764.44;5113981;28;20168;-85
2023/10/05 05:15:55;;;;;;;13.07;4.33;;;;;;;16.55;51.44;99770.50;5113436;28;20171;-85
2023/10/05 05:18:21;;;;;;;15.50;5.00;;;;;;;16.50;51.51;99769.06;5095540;28;20275;-85
2023/10/05 05:20:47;;;;;;;13.20;4.93;;;;;;;16.70;51.16;99773.03;5113416;28;20645;-85
2023/10/05 05:23:13;;;;;;;11.87;4.37;;;;;;;16.82;50.57;99769.59;5113403;28;20214;-84
2023/10/05 05:25:42;;;;;;;9.97;4.27;;;;;;;16.94;50.37;99761.66;5095106;28;20205;-84
2023/10/05 05:28:09;;;;;;;10.00;3.87;;;;;;;17.02;50.51;99758.47;5112805;28;20190;-85
2023/10/05 05:30:36;;;;;;;13.83;3.90;;;;;;;17.14;50.10;99762.91;5112811;28;20167;-84
2023/10/05 05:33:12;;;;;;;11.43;4.20;;;;;;;17.16;50.13;99761.84;5113272;28;20170;-85
2023/10/05 05:35:39;;;;;;;17.07;4.80;;;;;;;17.18;50.50;99772.34;5113615;28;20147;-84
2023/10/05 05:38:09;;;;;;;17.67;4.87;;;;;;;17.18;51.02;99769.69;5113135;28;20258;-85
2023/10/05 05:40:37;;;;;;;11.20;4.63;;;;;;;17.21;51.45;99772.16;5094820;28;20178;-85
2023/10/05 05:43:08;;;;;;;12.13;4.97;;;;;;;17.17;51.63;99771.50;5095286;28;20544;-85
2023/10/05 05:45:35;;;;;;;14.90;4.07;;;;;;;17.26;51.67;99771.81;5089615;28;20202;-85
2023/10/05 05:48:09;;;;;;;15.27;4.03;;;;;;;17.38;51.25;99774.44;5075318;28;20520;-84
2023/10/05 05:50:39;;;;;;;11.33;4.17;;;;;;;17.47;50.79;99773.81;5092711;28;20152;-85
2023/10/05 05:53:06;;;;;;;11.10;4.37;;;;;;;17.55;50.60;99768.84;5103862;28;20236;-85
2023/10/05 05:55:33;;;;;;;10.43;4.13;;;;;;;17.70;50.55;99778.34;5112967;28;20200;-85
2023/10/05 05:57:59;;;;;;;14.67;5.17;;;;;;;18.04;50.32;99786.53;5095177;28;20567;-85
2023/10/05 06:00:28;;;;;;;13.50;4.77;;;;;;;18.61;49.12;99776.09;5116836;28;20258;-85
2023/10/05 06:02:53;;;;;;;13.43;4.90;;;;;;;19.49;46.88;99781.59;5116926;28;20255;-85
2023/10/05 06:05:22;;;;;;;11.57;5.03;;;;;;;20.58;44.49;99778.00;5098737;28;20337;-85
2023/10/05 06:07:50;;;;;;;15.10;4.57;;;;;;;22.14;40.68;99775.03;5116737;28;20200;-84
2023/10/05 06:10:17;;;;;;;15.10;4.40;;;;;;;23.74;37.27;99761.72;5116414;28;20185;-84
2023/10/05 06:12:50;;;;;;;13.40;5.97;;;;;;;25.23;35.68;99763.66;5098253;28;20660;-84
2023/10/05 06:15:17;;;;;;;14.70;4.70;;;;;;;26.54;32.89;99762.16;5099677;28;20637;-84
2023/10/05 06:17:44;;;;;;;14.60;5.07;;;;;;;27.26;31.61;99767.53;5116346;28;20629;-84
2023/10/05 06:20:14;;;;;;;15.93;5.27;;;;;;;27.60;30.84;99763.75;5098486;28;20172;-84
2023/10/05 06:22:43;;;;;;;12.33;5.10;;;;;;;27.80;30.30;99773.97;5116643;28;20179;-85
2023/10/05 06:25:15;;;;;;;11.43;5.07;;;;;;;27.95;30.60;99776.75;5116113;28;20258;-85
2023/10/05 06:27:45;;;;;;;11.23;4.57;;;;;;;28.27;30.21;99775.78;5112878;28;20203;-85
2023/10/05 06:30:12;;;;;;;14.13;4.67;;;;;;;28.53;30.25;99777.09;5095888;28;20185;-85
2023/10/05 06:32:39;;;;;;;19.83;5.30;;;;;;;28.83;29.34;99788.00;5095794;28;20626;-85
2023/10/05 06:35:09;;;;;;;13.20;4.60;;;;;;;28.97;29.17;99787.22;5092695;28;20176;-85
2023/10/05 06:37:39;;;;;;;11.10;4.57;;;;;;;28.83;29.38;99785.31;5098116;28;20176;-86
2023/10/05 06:40:12;;;;;;;12.27;5.17;;;;;;;28.31;29.67;99794.09;5097888;28;20231;-87
2023/10/05 06:42:43;;;;;;;11.13;4.60;;;;;;;27.72;31.21;99794.69;5098025;28;20672;-87
2023/10/05 06:45:13;;;;;;;9.27;4.33;;;;;;;27.25;31.75;99803.53;5097655;28;20524;-86
2023/10/05 06:47:40;;;;;;;15.87;4.57;;;;;;;26.89;32.39;99804.91;5115937;28;20236;-86
2023/10/05 06:50:10;;;;;;;15.97;4.80;;;;;;;26.61;32.80;99796.28;5115470;28;20216;-87
2023/10/05 06:52:42;;;;;;;12.33;4.17;;;;;;;26.38;33.39;99802.47;5116084;28;20168;-86
2023/10/05 06:55:12;;;;;;;13.70;4.37;;;;;;;26.20;34.64;99814.19;5115853;28;20258;-87
2023/10/05 06:57:43;;;;;;;10.07;4.67;;;;;;;26.23;34.16;99808.47;5115556;28;20320;-87
2023/10/05 07:00:16;;;;;;;11.57;4.07;;;;;;;26.29;34.22;99811.50;5097448;28;20184;-87
2023/10/05 07:02:58;;;;;;;13.13;4.57;;;;;;;26.30;34.96;99813.22;5115762;28;20167;-87
2023/10/05 07:05:28;;;;;;;21.37;5.53;;;;;;;26.45;35.47;99806.16;5116337;28;20175;-87
2023/10/05 07:07:53;;;;;;;11.53;5.07;;;;;;;26.68;34.50;99809.91;5115643;28;20263;-87
2023/10/05 07:10:20;;;;;;;53.83;19.67;;;;;;;26.66;34.72;99820.84;5115016;28;20747;-87
2023/10/05 07:12:46;;;;;;;49.23;20.07;;;;;;;26.78;34.87;99821.41;5115248;28;20176;-86
2023/10/05 07:15:23;;;;;;;330.33;144.87;;;;;;;26.95;33.87;99814.16;5097384;28;20508;-87
2023/10/05 07:17:50;;;;;;;162.57;71.60;;;;;;;27.19;32.45;99820.38;5115265;28;20542;-87
2023/10/05 07:20:18;;;;;;;38.73;19.57;;;;;;;27.17;31.82;99819.72;5115258;28;20224;-87
2023/10/05 07:22:45;;;;;;;25.80;11.60;;;;;;;27.30;33.27;99821.88;5115846;28;20180;-87
2023/10/05 07:25:17;;;;;;;34.87;20.83;;;;;;;27.50;32.75;99819.66;5115147;28;20180;-87
2023/10/05 07:27:42;;;;;;;40.87;19.67;;;;;;;27.68;31.54;99817.59;5115325;28;20649;-87
2023/10/05 07:30:09;;;;;;;32.63;14.87;;;;;;;27.61;32.32;99822.84;5097353;28;20187;-86
2023/10/05 07:32:36;;;;;;;45.67;17.50;;;;;;;27.56;31.24;99825.22;5115586;28;20247;-87
2023/10/05 07:35:07;;;;;;;22.90;7.77;;;;;;;27.56;31.53;99827.06;5086467;28;20203;-87
2023/10/05 07:37:35;;;;;;;38.80;19.30;;;;;;;27.29;31.39;99823.72;5095939;28;20614;-87
2023/10/05 07:40:09;;;;;;;12.13;4.77;;;;;;;27.00;31.43;99834.16;5115154;28;20229;-87
2023/10/05 07:42:38;;;;;;;55.47;23.33;;;;;;;26.96;31.75;99829.31;5097791;28;20168;-87
2023/10/05 07:45:07;;;;;;;23.23;9.07;;;;;;;26.95;31.93;99839.22;5097608;28;20180;-86
2023/10/05 07:47:43;;;;;;;17.73;5.20;;;;;;;26.82;31.99;99822.72;5108475;28;20194;-87
2023/10/05 07:50:11;;;;;;;11.43;4.93;;;;;;;26.92;32.37;99826.09;5114959;28;20187;-86
2023/10/05 07:52:43;;;;;;;14.75;5.63;;;;;;;26.95;32.71;99825.75;5114426;28;20259;-87
2023/10/05 07:55:10;;;;;;;28.35;7.30;;;;;;;27.17;32.48;99830.47;5090520;28;20686;-87
2023/10/05 07:57:36;;;;;;;11.50;4.18;;;;;;;27.28;32.66;99826.59;5096608;28;20613;-87
2023/10/05 08:00:03;;;;;;;37.03;8.80;;;;;;;27.42;32.11;99824.06;5115333;28;20170;-88
2023/10/05 08:02:29;;;;;;;16.40;6.38;;;;;;;27.57;32.50;99818.00;5114799;28;20176;-88
2023/10/05 08:04:56;;;;;;;11.15;4.35;;;;;;;27.78;31.96;99821.78;5114638;28;20179;-87
2023/10/05 08:07:21;;;;;;;19.10;5.22;;;;;;;28.02;31.75;99819.03;5096546;28;20245;-87
2023/10/05 08:09:48;;;;;;;11.85;4.10;;;;;;;28.14;31.28;99816.78;5114333;28;20504;-87
2023/10/05 08:12:15;;;;;;;11.73;3.92;;;;;;;28.28;30.56;99816.03;5096554;28;20176;-87
2023/10/05 08:14:44;;;;;;;12.75;3.95;;;;;;;28.41;31.31;99816.28;5095959;28;20282;-87
2023/10/05 08:17:11;;;;;;;10.60;3.65;;;;;;;28.61;30.74;99817.56;5096312;28;20175;-87
2023/10/05 08:19:38;;;;;;;13.43;4.35;;;;;;;28.74;31.19;99811.56;5096501;28;20692;-87
2023/10/05 08:22:05;;;;;;;9.27;4.10;;;;;;;28.80;30.35;99810.00;5113358;28;20186;-87
2023/10/05 08:24:31;;;;;;;9.85;3.85;;;;;;;28.85;29.68;99808.41;5096275;28;20175;-87
2023/10/05 08:26:58;;;;;;;11.75;4.03;;;;;;;28.85;30.63;99802.19;5097226;28;20187;-87
2023/10/05 08:29:27;;;;;;;9.75;4.18;;;;;;;28.94;29.80;99811.88;5113376;28;20300;-87
2023/10/05 08:31:53;;;;;;;9.57;3.83;;;;;;;29.11;30.51;99802.63;5096276;28;20175;-87
2023/10/05 08:34:22;;;;;;;11.20;3.63;;;;;;;29.26;30.22;99800.84;5114164;28;20167;-87
2023/10/05 08:36:54;;;;;;;13.85;4.28;;;;;;;29.36;30.08;99801.41;5114173;28;20183;-87
2023/10/05 08:39:25;;;;;;;10.15;3.92;;;;;;;29.46;30.70;99795.72;5096214;28;20250;-87
2023/10/05 08:42:02;;;;;;;8.82;3.60;;;;;;;29.65;30.06;99803.28;5103784;28;20183;-88
2023/10/05 08:44:30;;;;;;;10.82;3.60;;;;;;;29.66;29.95;99803.09;5085701;28;20240;-87
2023/10/05 08:46:56;;;;;;;11.30;4.68;;;;;;;29.83;29.02;99804.63;5099124;28;20549;-88
2023/10/05 08:49:26;;;;;;;9.85;4.07;;;;;;;29.95;29.65;99790.63;5083289;28;20719;-88
2023/10/05 08:51:52;;;;;;;9.07;3.88;;;;;;;30.02;29.78;99797.78;5101408;28;20211;-87
2023/10/05 08:54:21;;;;;;;8.68;3.60;;;;;;;30.21;29.39;99793.66;5107032;28;20183;-88
2023/10/05 08:56:48;;;;;;;11.32;4.40;;;;;;;30.25;29.36;99789.53;5113124;28;20545;-87
2023/10/05 08:59:14;;;;;;;13.10;4.25;;;;;;;30.32;29.36;99791.28;5113346;28;20189;-87
2023/10/05 09:01:46;;;;;;;11.10;3.70;;;;;;;30.37;29.11;99791.56;5113275;28;20254;-87
2023/10/05 09:06:56;;;;;;;11.18;3.85;;;;;;;30.49;28.47;99783.78;5114366;28;20262;-88
2023/10/05 09:09:39;;;;;;;10.07;3.92;;;;;;;30.51;28.83;99781.72;5095660;28;20192;-88
2023/10/05 09:12:42;;;;;;;11.90;4.00;;;;;;;30.72;28.47;99789.00;5113483;28;20626;-87
2023/10/05 09:15:37;;;;;;;11.73;4.13;;;;;;;30.67;28.24;99781.47;5113346;28;20252;-87
2023/10/05 09:20:36;;;;;;;11.63;4.22;;;;;;;30.83;27.25;99775.78;5113456;28;20176;-88
2023/10/05 09:23:13;;;;;;;9.40;3.78;;;;;;;30.95;26.93;99776.97;5113341;28;20232;-87
2023/10/05 09:25:45;;;;;;;8.00;3.58;;;;;;;30.71;27.62;99763.00;5113307;28;20186;-88
2023/10/05 09:28:28;;;;;;;10.23;3.75;;;;;;;30.80;28.03;99769.91;5113097;28;20224;-88
2023/10/05 09:31:07;;;;;;;12.10;3.30;;;;;;;30.59;27.58;99768.06;5113654;28;20301;-88
2023/10/05 09:33:46;;;;;;;18.98;4.05;;;;;;;30.91;27.56;99766.72;5097220;28;20203;-88
2023/10/05 09:36:19;;;;;;;13.63;4.03;;;;;;;31.13;27.85;99764.81;5117313;28;20164;-88
2023/10/05 09:38:46;;;;;;;9.55;3.05;;;;;;;31.17;27.18;99757.97;5117225;28;20574;-88
2023/10/05 09:41:20;;;;;;;8.80;3.42;;;;;;;31.07;26.94;99765.59;5099161;28;20191;-89
2023/10/05 09:44:05;;;;;;;11.70;3.33;;;;;;;31.10;27.26;99759.81;5117542;28;20151;-88
2023/10/05 09:46:34;;;;;;;9.45;3.33;;;;;;;31.38;27.01;99747.06;5117392;28;20579;-88
2023/10/05 09:49:01;;;;;;;8.45;3.22;;;;;;;31.32;26.80;99747.84;5098603;28;20199;-88
2023/10/05 09:51:29;;;;;;;7.50;3.20;;;;;;;31.34;26.93;99757.44;5098720;28;20219;-88
2023/10/05 09:53:56;;;;;;;10.85;3.80;;;;;;;31.19;27.18;99759.44;5116982;28;20186;-89
2023/10/05 09:56:25;;;;;;;12.05;3.28;;;;;;;31.25;27.31;99746.97;5116901;28;20176;-89
2023/10/05 09:58:52;;;;;;;10.63;3.45;;;;;;;31.38;26.89;99741.66;5096473;28;20165;-88
2023/10/05 10:01:20;;;;;;;13.57;3.90;;;;;;;31.22;27.08;99741.94;5097136;28;20527;-88
2023/10/05 10:03:52;;;;;;;8.23;3.20;;;;;;;31.29;25.95;99742.84;5116740;28;20225;-88
2023/10/05 10:06:24;;;;;;;17.40;5.32;;;;;;;31.27;27.37;99739.47;5116371;28;20186;-89
2023/10/05 10:08:54;;;;;;;7.68;3.25;;;;;;;31.13;27.06;99732.31;5116287;28;20210;-88
2023/10/05 10:11:27;;;;;;;10.40;4.28;;;;;;;31.40;26.59;99728.72;5116872;28;20183;-88
2023/10/05 10:14:09;;;;;;;10.38;4.32;;;;;;;31.46;26.58;99733.38;5116376;28;20175;-87
2023/10/05 10:16:41;;;;;;;12.88;3.45;;;;;;;31.46;25.87;99727.97;5116451;28;20268;-89
2023/10/05 10:19:23;;;;;;;18.88;3.95;;;;;;;31.37;26.90;99729.13;5116457;28;20190;-89
2023/10/05 10:21:57;;;;;;;8.20;3.20;;;;;;;31.58;26.65;99716.34;5116201;28;20584;-88
2023/10/05 10:24:28;;;;;;;10.25;3.58;;;;;;;31.59;26.27;99720.75;5116383;28;20643;-89
2023/10/05 10:27:07;;;;;;;7.80;3.10;;;;;;;31.41;26.64;99709.56;5098027;28;20184;-89
2023/10/05 10:29:55;;;;;;;15.15;3.95;;;;;;;31.61;26.39;99709.69;5116212;28;20667;-88
2023/10/05 10:32:31;;;;;;;10.73;4.00;;;;;;;31.60;26.37;99708.03;5098002;28;20188;-88
2023/10/05 10:35:12;;;;;;;8.25;3.65;;;;;;;31.71;26.45;99693.88;5099364;28;20167;-88
2023/10/05 10:37:48;;;;;;;8.55;3.10;;;;;;;31.90;26.15;99695.00;5116466;28;20207;-89
2023/10/05 10:42:50;;;;;;;12.07;3.20;;;;;;;32.25;26.00;99693.03;5116902;28;20658;-88
2023/10/05 10:45:50;;;;;;;11.57;3.58;;;;;;;32.38;26.47;99688.47;5115162;28;20629;-88
2023/10/05 10:48:21;;;;;;;7.20;3.00;;;;;;;32.17;26.04;99677.78;5112461;28;20191;-88
2023/10/05 10:50:52;;;;;;;7.50;3.10;;;;;;;32.24;26.04;99678.63;5115783;28;20175;-87
2023/10/05 10:53:25;;;;;;;9.00;3.33;;;;;;;32.39;26.19;99671.13;5097862;28;20172;-88
2023/10/05 10:56:18;;;;;;;8.93;3.28;;;;;;;32.34;25.82;99662.75;5116097;28;20170;-88
2023/10/05 10:58:45;;;;;;;7.13;3.00;;;;;;;32.58;26.22;99664.06;5116073;28;20179;-88
2023/10/05 11:01:40;;;;;;;9.07;3.60;;;;;;;32.74;25.27;99653.63;5115715;28;20233;-88
2023/10/05 11:04:24;;;;;;;10.25;3.03;;;;;;;32.94;25.27;99648.16;5115602;28;20172;-89
2023/10/05 11:06:58;;;;;;;8.57;3.90;;;;;;;32.75;25.69;99646.31;5097636;28;20199;-88
2023/10/05 11:09:31;;;;;;;8.05;2.85;;;;;;;33.05;24.67;99639.38;5097270;28;20207;-88
2023/10/05 11:12:15;;;;;;;10.13;3.38;;;;;;;33.08;25.57;99636.25;5115756;28;20160;-88
2023/10/05 11:14:43;;;;;;;8.02;3.63;;;;;;;33.18;25.64;99625.75;5096901;28;20708;-88
2023/10/05 11:17:46;;;;;;;8.98;3.08;;;;;;;33.46;24.69;99628.19;5115518;28;20187;-88
2023/10/05 11:20:25;;;;;;;7.70;3.83;;;;;;;33.55;24.13;99634.19;5091010;28;20558;-88
2023/10/05 11:23:03;;;;;;;7.75;2.88;;;;;;;33.53;23.89;99628.13;5107644;28;20203;-87
2023/10/05 11:25:36;;;;;;;11.60;3.40;;;;;;;33.53;24.34;99620.81;5097194;28;20657;-89
2023/10/05 11:28:07;;;;;;;10.18;2.63;;;;;;;33.58;24.54;99617.47;5097220;28;20215;-87
2023/10/05 11:30:47;;;;;;;11.95;3.85;;;;;;;33.56;24.80;99614.16;5115659;28;20195;-87
2023/10/05 11:33:15;;;;;;;11.57;3.65;;;;;;;33.24;24.36;99614.03;5115053;28;20659;-87
2023/10/05 11:35:49;;;;;;;9.75;2.85;;;;;;;33.23;24.37;99601.50;5115284;28;20191;-88
2023/10/05 11:38:26;;;;;;;9.13;3.47;;;;;;;33.20;24.20;99604.63;5114658;28;20187;-88
2023/10/05 11:40:56;;;;;;;11.80;3.00;;;;;;;33.04;24.59;99604.25;5115187;28;20235;-88
2023/10/05 11:43:23;;;;;;;6.60;2.28;;;;;;;32.97;25.17;99604.25;5115328;28;20566;-88
2023/10/05 11:48:55;;;;;;;12.43;3.67;;;;;;;33.10;24.44;99600.72;5114736;28;20203;-88
2023/10/05 11:51:41;;;;;;;7.80;3.38;;;;;;;33.18;24.53;99601.31;5115550;28;20486;-88
2023/10/05 11:54:09;;;;;;;7.32;2.80;;;;;;;33.25;24.81;99596.69;5096525;28;20262;-88
2023/10/05 11:56:35;;;;;;;9.55;3.15;;;;;;;33.43;24.40;99604.16;5114199;28;20183;-88
2023/10/05 11:59:01;;;;;;;7.28;3.28;;;;;;;33.32;24.73;99597.50;5096615;28;20637;-88
2023/10/05 12:01:27;;;;;;;11.75;3.55;;;;;;;33.47;24.88;99591.78;5114340;28;20186;-88
2023/10/05 12:03:55;;;;;;;10.30;3.70;;;;;;;33.21;25.02;99591.88;5114473;28;20246;-88
2023/10/05 12:06:25;;;;;;;10.15;3.45;;;;;;;33.28;24.45;99584.56;5114188;28;20206;-87
2023/10/05 12:11:54;;;;;;;9.48;3.13;;;;;;;33.87;24.30;99582.38;5097972;28;20715;-88